createdAt,value
2018-08-03T00:01:06.541Z,17
2018-08-03T00:06:09.223Z,18
2018-08-03T00:11:11.505Z,19
2018-08-03T00:16:13.906Z,18
2018-08-03T00:21:16.466Z,17
2018-08-03T00:26:18.997Z,19
2018-08-03T00:31:21.367Z,19
2018-08-03T00:36:23.819Z,18
2018-08-03T00:41:26.408Z,19
2018-08-03T00:46:28.613Z,20
2018-08-03T00:51:31.674Z,19
2018-08-03T00:56:33.561Z,19
2018-08-03T01:01:36.083Z,19
2018-08-03T01:06:38.697Z,20
2018-08-03T01:11:41.265Z,18
2018-08-03T01:16:43.393Z,18
2018-08-03T01:21:45.835Z,19
2018-08-03T01:26:48.296Z,20
2018-08-03T01:31:50.996Z,21
2018-08-03T01:36:53.265Z,21
2018-08-03T01:41:55.649Z,19
2018-08-03T01:46:58.317Z,20
2018-08-03T01:52:00.583Z,21
2018-08-03T01:57:03.162Z,21
2018-08-03T02:02:05.662Z,21
2018-08-03T02:07:08.008Z,20
2018-08-03T02:12:10.406Z,21
2018-08-03T02:17:13.090Z,20
2018-08-03T02:22:15.622Z,22
2018-08-03T02:27:17.823Z,21
2018-08-03T02:32:20.283Z,20
2018-08-03T02:37:22.769Z,21
2018-08-03T02:42:25.216Z,24
2018-08-03T02:47:27.905Z,22
2018-08-03T02:52:30.120Z,25
2018-08-03T02:57:32.564Z,22
2018-08-03T03:02:34.993Z,22
2018-08-03T03:07:37.674Z,23
2018-08-03T03:12:39.930Z,24
2018-08-03T03:17:42.404Z,23
2018-08-03T03:22:44.873Z,24
2018-08-03T03:27:47.331Z,23
2018-08-03T03:32:49.757Z,23
2018-08-03T03:37:52.340Z,22
2018-08-03T03:42:54.716Z,25
2018-08-03T03:47:57.111Z,22
2018-08-03T03:58:02.361Z,21
2018-08-03T04:03:04.701Z,24
2018-08-03T04:08:07.118Z,22
2018-08-03T04:13:09.434Z,23
2018-08-03T04:18:11.901Z,23
2018-08-03T04:23:15.030Z,22
2018-08-03T04:28:16.828Z,21
2018-08-03T04:33:20.302Z,22
2018-08-03T04:38:21.752Z,25
2018-08-03T04:43:24.293Z,24
2018-08-03T04:48:26.649Z,25
2018-08-03T04:53:29.090Z,22
2018-08-03T04:58:31.556Z,22
2018-08-03T05:08:36.477Z,21
2018-08-03T05:13:39.076Z,23
2018-08-03T05:18:42.171Z,21
2018-08-03T05:23:43.935Z,21
2018-08-03T05:28:46.419Z,19
2018-08-03T05:33:48.777Z,17
2018-08-03T05:38:51.219Z,18
2018-08-03T05:43:53.821Z,16
2018-08-03T05:48:56.178Z,17
2018-08-03T05:53:58.909Z,18
2018-08-03T05:59:01.060Z,17
2018-08-03T06:04:03.670Z,16
2018-08-03T06:09:06.007Z,15
2018-08-03T06:14:08.534Z,16
2018-08-03T06:19:11.160Z,14
2018-08-03T06:24:13.506Z,16
2018-08-03T06:29:16.014Z,17
2018-08-03T06:34:18.285Z,16
2018-08-03T06:44:23.237Z,17
2018-08-03T06:49:25.908Z,17
2018-08-03T06:54:28.203Z,18
2018-08-03T06:59:30.687Z,18
2018-08-03T07:04:33.238Z,17
2018-08-03T07:09:35.594Z,17
2018-08-03T07:14:38.038Z,23
2018-08-03T07:19:40.674Z,18
2018-08-03T07:24:42.898Z,16
2018-08-03T07:29:45.389Z,16
2018-08-03T07:34:47.860Z,15
2018-08-03T07:39:50.351Z,15
2018-08-03T07:44:53.092Z,16
2018-08-03T07:49:55.675Z,15
2018-08-03T08:00:00.180Z,16
2018-08-03T08:05:02.842Z,16
2018-08-03T08:10:05.055Z,16
2018-08-03T08:15:07.785Z,17
2018-08-03T08:20:10.559Z,17
2018-08-03T08:25:12.617Z,16
2018-08-03T08:30:15.032Z,18
2018-08-03T08:35:17.599Z,17
2018-08-03T08:40:19.801Z,17
2018-08-03T08:45:22.383Z,17
2018-08-03T08:50:24.781Z,17
2018-08-03T08:55:27.190Z,17
2018-08-03T09:00:29.660Z,18
2018-08-03T09:05:32.514Z,17
2018-08-03T09:10:34.556Z,18
2018-08-03T09:15:37.056Z,21
2018-08-03T09:25:42.071Z,18
2018-08-03T09:30:44.743Z,21
2018-08-03T09:35:46.921Z,18
2018-08-03T09:40:49.394Z,19
2018-08-03T09:45:51.810Z,20
2018-08-03T09:50:54.259Z,18
2018-08-03T09:55:56.846Z,17
2018-08-03T10:00:59.224Z,17
2018-08-03T10:06:01.686Z,17
2018-08-03T10:11:04.293Z,17
2018-08-03T10:16:06.565Z,17
2018-08-03T10:21:09.107Z,15
2018-08-03T10:26:11.773Z,14
2018-08-03T10:31:14.313Z,16
2018-08-03T10:36:16.511Z,17
2018-08-03T10:41:18.882Z,16
2018-08-03T10:46:21.366Z,15
2018-08-03T10:51:23.923Z,16
2018-08-03T10:56:26.330Z,15
2018-08-03T11:01:28.829Z,16
2018-08-03T11:06:31.224Z,14
2018-08-03T11:11:33.593Z,15
2018-08-03T11:16:36.337Z,16
2018-08-03T11:21:38.708Z,14
2018-08-03T11:26:40.993Z,16
2018-08-03T11:31:43.714Z,15
2018-08-03T11:36:46.153Z,15
2018-08-03T11:41:48.474Z,15
2018-08-03T11:46:51.113Z,16
2018-08-03T11:51:53.334Z,15
2018-08-03T11:56:55.749Z,15
2018-08-03T12:01:58.501Z,15
2018-08-03T12:07:00.664Z,14
2018-08-03T12:12:03.291Z,15
2018-08-03T12:17:05.815Z,15
2018-08-03T12:22:08.079Z,14
2018-08-03T12:27:10.625Z,15
2018-08-03T12:32:13.037Z,12
2018-08-03T12:37:16.041Z,12
2018-08-03T12:42:17.972Z,13
2018-08-03T12:47:20.580Z,14
2018-08-03T12:52:22.815Z,11
2018-08-03T12:57:25.601Z,13
2018-08-03T13:02:28.211Z,12
2018-08-03T13:07:30.579Z,10
2018-08-03T13:12:32.950Z,9
2018-08-03T13:17:35.338Z,10
2018-08-03T13:22:37.546Z,10
2018-08-03T13:27:40.233Z,12
2018-08-03T13:32:42.493Z,9
2018-08-03T13:37:45.172Z,9
2018-08-03T13:42:47.427Z,9
2018-08-03T13:47:49.907Z,10
2018-08-03T13:52:52.325Z,13
2018-08-03T13:57:54.995Z,13
2018-08-03T14:02:57.505Z,11
2018-08-03T14:08:00.105Z,12
2018-08-03T14:13:02.178Z,13
2018-08-03T14:18:04.760Z,12
2018-08-03T14:23:07.130Z,13
2018-08-03T14:28:10.092Z,12
2018-08-03T14:33:12.038Z,14
2018-08-03T14:38:14.729Z,13
2018-08-03T14:43:16.977Z,11
2018-08-03T14:48:19.463Z,11
2018-08-03T14:53:22.145Z,11
2018-08-03T14:58:24.300Z,13
2018-08-03T15:03:26.888Z,11
2018-08-03T15:08:29.258Z,9
2018-08-03T15:13:31.689Z,10
2018-08-03T15:18:34.165Z,11
2018-08-03T15:23:36.603Z,11
2018-08-03T15:28:39.191Z,11
2018-08-03T15:38:44.146Z,12
2018-08-03T15:43:46.456Z,11
2018-08-03T15:48:49.678Z,11
2018-08-03T15:53:51.392Z,10
2018-08-03T15:58:53.837Z,11
2018-08-03T16:03:56.492Z,12
2018-08-03T16:08:58.931Z,11
2018-08-03T16:14:01.396Z,12
2018-08-03T16:19:03.714Z,10
2018-08-03T16:24:06.308Z,11
2018-08-03T16:29:08.609Z,11
2018-08-03T16:34:11.030Z,12
2018-08-03T16:39:13.786Z,11
2018-08-03T16:44:16.171Z,11
2018-08-03T16:49:18.439Z,10
2018-08-03T16:54:21.105Z,12
2018-08-03T16:59:23.364Z,11
2018-08-03T17:04:25.852Z,11
2018-08-03T17:09:28.292Z,12
2018-08-03T17:14:30.693Z,10
2018-08-03T17:19:33.151Z,10
2018-08-03T17:24:35.641Z,10
2018-08-03T17:29:38.173Z,10
2018-08-03T17:34:40.530Z,11
2018-08-03T17:39:43.043Z,10
2018-08-03T17:44:45.452Z,10
2018-08-03T17:49:48.160Z,10
2018-08-03T17:54:50.626Z,19
2018-08-03T17:59:53.279Z,12
2018-08-03T18:04:55.292Z,13
2018-08-03T18:09:57.818Z,13
2018-08-03T18:15:00.257Z,13
2018-08-03T18:20:03.494Z,12
2018-08-03T18:25:05.151Z,12
2018-08-03T18:30:07.678Z,12
2018-08-03T18:40:12.776Z,14
2018-08-03T18:45:14.985Z,13
2018-08-03T18:50:17.585Z,13
2018-08-03T18:55:19.968Z,13
2018-08-03T19:00:22.996Z,13
2018-08-03T19:05:25.237Z,15
2018-08-03T19:10:27.358Z,13
2018-08-03T19:20:32.309Z,19
2018-08-03T19:25:34.780Z,15
2018-08-03T19:30:37.126Z,17
2018-08-03T19:35:39.566Z,18
2018-08-03T19:40:42.037Z,15
2018-08-03T19:45:44.598Z,15
2018-08-03T19:50:47.056Z,15
2018-08-03T19:55:49.449Z,16
2018-08-03T20:00:52.181Z,17
2018-08-03T20:05:54.314Z,15
2018-08-03T20:10:56.934Z,15
2018-08-03T20:15:59.278Z,15
2018-08-03T20:21:01.689Z,15
2018-08-03T20:26:04.225Z,15
2018-08-03T20:31:06.597Z,15
2018-08-03T20:36:09.052Z,16
2018-08-03T20:41:11.666Z,16
2018-08-03T20:46:14.024Z,16
2018-08-03T20:51:16.452Z,15
2018-08-03T20:56:18.931Z,18
2018-08-03T21:01:21.930Z,16
2018-08-03T21:06:24.085Z,17
2018-08-03T21:11:26.637Z,19
2018-08-03T21:16:28.739Z,18
2018-08-03T21:21:31.212Z,16
2018-08-03T21:26:34.077Z,16
2018-08-03T21:31:36.172Z,18
2018-08-03T21:36:38.589Z,17
2018-08-03T21:41:41.044Z,18
2018-08-03T21:46:43.534Z,20
2018-08-03T21:51:46.160Z,18
2018-08-03T21:56:48.495Z,19
2018-08-03T22:01:50.911Z,19
2018-08-03T22:06:53.698Z,19
2018-08-03T22:11:55.876Z,19
2018-08-03T22:16:58.233Z,20
2018-08-03T22:22:00.743Z,21
2018-08-03T22:27:03.231Z,21
2018-08-03T22:32:05.626Z,21
2018-08-03T22:37:08.096Z,20
2018-08-03T22:42:10.594Z,18
2018-08-03T22:47:13.362Z,21
2018-08-03T22:52:15.622Z,23
2018-08-03T22:57:18.475Z,21
2018-08-03T23:02:20.443Z,18
2018-08-03T23:07:22.910Z,21
2018-08-03T23:12:25.387Z,22
2018-08-03T23:17:28.010Z,22
2018-08-03T23:22:30.214Z,21
2018-08-03T23:27:32.669Z,22
2018-08-03T23:32:35.112Z,20
2018-08-03T23:37:37.594Z,22
2018-08-03T23:42:40.372Z,21
2018-08-03T23:47:42.512Z,21
2018-08-03T23:52:44.946Z,25
2018-08-03T23:57:47.555Z,26
